CLT weather

Charlotte Douglas International Airport
Charlotte, North Carolina, United States

Public forecast

Using degrees Fahrenheit for public forecast. Weather courtesy of forecast.io.

METAR (pilot weather report)

Retrieved 2018/06/19 07:52 UTC (10 minutes ago):

KCLT 190752Z 28003KT 10SM CLR 25/22 A3001 RMK AO2 SLP152 T02500222

TAF (pilot weather forecast)

Retrieved 2018/06/19 06:36 UTC (1 hour ago):

TAF KCLT 190534Z 1906/2012 25004KT P6SM FEW250 FM191400 30004KT P6SM FEW080 FEW250